sensor_id;sensor_type;location;lat;lon;timestamp;P1;durP1;ratioP1;P2;durP2;ratioP2
13708;SDS011;54933;51.908;7.730;2022-08-25T00:00:35;3.40;;;1.53;;
13708;SDS011;54933;51.908;7.730;2022-08-25T00:03:00;1.43;;;1.33;;
13708;SDS011;54933;51.908;7.730;2022-08-25T00:05:26;1.63;;;1.60;;
13708;SDS011;54933;51.908;7.730;2022-08-25T00:07:52;2.03;;;1.90;;
13708;SDS011;54933;51.908;7.730;2022-08-25T00:10:17;1.40;;;1.40;;
13708;SDS011;54933;51.908;7.730;2022-08-25T00:12:44;1.50;;;1.40;;
13708;SDS011;54933;51.908;7.730;2022-08-25T00:15:09;1.80;;;1.70;;
13708;SDS011;54933;51.908;7.730;2022-08-25T00:17:35;1.60;;;1.50;;
13708;SDS011;54933;51.908;7.730;2022-08-25T00:20:00;1.80;;;1.57;;
13708;SDS011;54933;51.908;7.730;2022-08-25T00:22:25;1.50;;;1.40;;
13708;SDS011;54933;51.908;7.730;2022-08-25T00:24:50;1.60;;;1.50;;
13708;SDS011;54933;51.908;7.730;2022-08-25T00:27:16;1.40;;;1.30;;
13708;SDS011;54933;51.908;7.730;2022-08-25T00:29:42;5.10;;;1.53;;
13708;SDS011;54933;51.908;7.730;2022-08-25T00:32:07;1.63;;;1.60;;
13708;SDS011;54933;51.908;7.730;2022-08-25T00:34:33;1.40;;;1.30;;
13708;SDS011;54933;51.908;7.730;2022-08-25T00:37:01;2.33;;;1.63;;
13708;SDS011;54933;51.908;7.730;2022-08-25T00:39:28;2.50;;;1.60;;
13708;SDS011;54933;51.908;7.730;2022-08-25T00:41:54;1.57;;;1.50;;
13708;SDS011;54933;51.908;7.730;2022-08-25T00:44:21;1.67;;;1.57;;
13708;SDS011;54933;51.908;7.730;2022-08-25T00:46:49;1.70;;;1.60;;
13708;SDS011;54933;51.908;7.730;2022-08-25T00:49:23;3.53;;;1.47;;
13708;SDS011;54933;51.908;7.730;2022-08-25T00:52:04;2.27;;;1.50;;
13708;SDS011;54933;51.908;7.730;2022-08-25T00:54:37;2.27;;;1.80;;
13708;SDS011;54933;51.908;7.730;2022-08-25T00:57:06;1.73;;;1.60;;
13708;SDS011;54933;51.908;7.730;2022-08-25T00:59:34;3.13;;;1.63;;
13708;SDS011;54933;51.908;7.730;2022-08-25T01:02:00;3.93;;;1.50;;
13708;SDS011;54933;51.908;7.730;2022-08-25T01:04:27;1.70;;;1.63;;
13708;SDS011;54933;51.908;7.730;2022-08-25T01:06:52;1.53;;;1.43;;
13708;SDS011;54933;51.908;7.730;2022-08-25T01:09:19;2.20;;;1.77;;
13708;SDS011;54933;51.908;7.730;2022-08-25T01:11:45;1.60;;;1.50;;
13708;SDS011;54933;51.908;7.730;2022-08-25T01:14:15;1.57;;;1.47;;
13708;SDS011;54933;51.908;7.730;2022-08-25T01:16:43;1.67;;;1.57;;
13708;SDS011;54933;51.908;7.730;2022-08-25T01:19:09;3.20;;;1.70;;
13708;SDS011;54933;51.908;7.730;2022-08-25T01:21:39;1.73;;;1.60;;
13708;SDS011;54933;51.908;7.730;2022-08-25T01:24:06;2.53;;;1.30;;
13708;SDS011;54933;51.908;7.730;2022-08-25T01:26:35;2.13;;;1.43;;
13708;SDS011;54933;51.908;7.730;2022-08-25T01:29:02;1.73;;;1.63;;
13708;SDS011;54933;51.908;7.730;2022-08-25T01:31:44;1.60;;;1.43;;
13708;SDS011;54933;51.908;7.730;2022-08-25T01:34:11;1.50;;;1.40;;
13708;SDS011;54933;51.908;7.730;2022-08-25T01:36:37;1.63;;;1.53;;
13708;SDS011;54933;51.908;7.730;2022-08-25T01:39:04;1.30;;;1.20;;
13708;SDS011;54933;51.908;7.730;2022-08-25T01:41:34;2.87;;;1.57;;
13708;SDS011;54933;51.908;7.730;2022-08-25T01:44:05;1.60;;;1.47;;
13708;SDS011;54933;51.908;7.730;2022-08-25T01:46:31;1.47;;;1.37;;
13708;SDS011;54933;51.908;7.730;2022-08-25T01:48:58;1.40;;;1.30;;
13708;SDS011;54933;51.908;7.730;2022-08-25T01:51:25;1.43;;;1.40;;
13708;SDS011;54933;51.908;7.730;2022-08-25T01:53:53;2.30;;;1.53;;
13708;SDS011;54933;51.908;7.730;2022-08-25T01:56:18;1.70;;;1.60;;
13708;SDS011;54933;51.908;7.730;2022-08-25T01:58:45;3.30;;;1.70;;
13708;SDS011;54933;51.908;7.730;2022-08-25T02:01:13;3.23;;;1.43;;
13708;SDS011;54933;51.908;7.730;2022-08-25T02:03:42;3.80;;;1.90;;
13708;SDS011;54933;51.908;7.730;2022-08-25T02:06:12;1.53;;;1.47;;
13708;SDS011;54933;51.908;7.730;2022-08-25T02:08:40;3.90;;;1.50;;
13708;SDS011;54933;51.908;7.730;2022-08-25T02:11:09;1.67;;;1.57;;
13708;SDS011;54933;51.908;7.730;2022-08-25T02:13:36;1.83;;;1.37;;
13708;SDS011;54933;51.908;7.730;2022-08-25T02:16:02;3.23;;;1.60;;
13708;SDS011;54933;51.908;7.730;2022-08-25T02:18:28;4.10;;;1.60;;
13708;SDS011;54933;51.908;7.730;2022-08-25T02:20:53;4.63;;;2.63;;
13708;SDS011;54933;51.908;7.730;2022-08-25T02:23:19;1.53;;;1.43;;
13708;SDS011;54933;51.908;7.730;2022-08-25T02:25:44;1.93;;;1.70;;
13708;SDS011;54933;51.908;7.730;2022-08-25T02:28:10;1.47;;;1.37;;
13708;SDS011;54933;51.908;7.730;2022-08-25T02:30:36;1.63;;;1.53;;
13708;SDS011;54933;51.908;7.730;2022-08-25T02:33:03;2.23;;;1.40;;
13708;SDS011;54933;51.908;7.730;2022-08-25T02:35:28;4.13;;;1.70;;
13708;SDS011;54933;51.908;7.730;2022-08-25T02:37:54;1.73;;;1.63;;
13708;SDS011;54933;51.908;7.730;2022-08-25T02:40:19;4.43;;;1.70;;
13708;SDS011;54933;51.908;7.730;2022-08-25T02:42:46;1.90;;;1.30;;
13708;SDS011;54933;51.908;7.730;2022-08-25T02:45:12;1.70;;;1.60;;
13708;SDS011;54933;51.908;7.730;2022-08-25T02:47:38;2.90;;;1.30;;
13708;SDS011;54933;51.908;7.730;2022-08-25T02:50:04;2.77;;;1.77;;
13708;SDS011;54933;51.908;7.730;2022-08-25T02:52:30;3.57;;;1.40;;
13708;SDS011;54933;51.908;7.730;2022-08-25T02:54:55;2.00;;;1.53;;
13708;SDS011;54933;51.908;7.730;2022-08-25T02:57:21;2.23;;;1.50;;
13708;SDS011;54933;51.908;7.730;2022-08-25T02:59:46;1.70;;;1.60;;
13708;SDS011;54933;51.908;7.730;2022-08-25T03:02:12;1.83;;;1.60;;
13708;SDS011;54933;51.908;7.730;2022-08-25T03:04:41;2.30;;;1.60;;
13708;SDS011;54933;51.908;7.730;2022-08-25T03:07:07;1.53;;;1.43;;
13708;SDS011;54933;51.908;7.730;2022-08-25T03:09:33;2.00;;;1.80;;
13708;SDS011;54933;51.908;7.730;2022-08-25T03:11:58;1.30;;;1.30;;
13708;SDS011;54933;51.908;7.730;2022-08-25T03:14:24;3.27;;;1.50;;
13708;SDS011;54933;51.908;7.730;2022-08-25T03:16:49;1.47;;;1.37;;
13708;SDS011;54933;51.908;7.730;2022-08-25T03:19:15;1.90;;;1.70;;
13708;SDS011;54933;51.908;7.730;2022-08-25T03:21:40;6.30;;;1.40;;
13708;SDS011;54933;51.908;7.730;2022-08-25T03:24:06;2.07;;;1.60;;
13708;SDS011;54933;51.908;7.730;2022-08-25T03:26:31;1.80;;;1.70;;
13708;SDS011;54933;51.908;7.730;2022-08-25T03:29:15;2.73;;;1.50;;
13708;SDS011;54933;51.908;7.730;2022-08-25T03:31:42;1.87;;;1.77;;
13708;SDS011;54933;51.908;7.730;2022-08-25T03:34:08;5.93;;;1.60;;
13708;SDS011;54933;51.908;7.730;2022-08-25T03:36:34;1.47;;;1.37;;
13708;SDS011;54933;51.908;7.730;2022-08-25T03:38:59;2.57;;;1.40;;
13708;SDS011;54933;51.908;7.730;2022-08-25T03:41:27;1.80;;;1.70;;
13708;SDS011;54933;51.908;7.730;2022-08-25T03:43:54;1.53;;;1.43;;
13708;SDS011;54933;51.908;7.730;2022-08-25T03:46:24;1.93;;;1.67;;
13708;SDS011;54933;51.908;7.730;2022-08-25T03:48:51;2.63;;;1.60;;
13708;SDS011;54933;51.908;7.730;2022-08-25T03:51:25;1.50;;;1.50;;
13708;SDS011;54933;51.908;7.730;2022-08-25T03:53:53;1.53;;;1.50;;
13708;SDS011;54933;51.908;7.730;2022-08-25T03:56:19;1.80;;;1.70;;
13708;SDS011;54933;51.908;7.730;2022-08-25T03:58:44;2.37;;;1.87;;
13708;SDS011;54933;51.908;7.730;2022-08-25T04:01:10;3.77;;;1.77;;
13708;SDS011;54933;51.908;7.730;2022-08-25T04:03:36;2.10;;;1.80;;
13708;SDS011;54933;51.908;7.730;2022-08-25T04:06:02;1.60;;;1.50;;
13708;SDS011;54933;51.908;7.730;2022-08-25T04:08:29;1.63;;;1.53;;
13708;SDS011;54933;51.908;7.730;2022-08-25T04:10:54;2.83;;;1.70;;
13708;SDS011;54933;51.908;7.730;2022-08-25T04:13:20;1.80;;;1.70;;
13708;SDS011;54933;51.908;7.730;2022-08-25T04:15:45;2.63;;;1.70;;
13708;SDS011;54933;51.908;7.730;2022-08-25T04:18:10;1.60;;;1.50;;
13708;SDS011;54933;51.908;7.730;2022-08-25T04:20:37;1.87;;;1.60;;
13708;SDS011;54933;51.908;7.730;2022-08-25T04:23:02;2.20;;;1.70;;
13708;SDS011;54933;51.908;7.730;2022-08-25T04:25:28;2.00;;;1.87;;
13708;SDS011;54933;51.908;7.730;2022-08-25T04:27:53;2.13;;;1.70;;
13708;SDS011;54933;51.908;7.730;2022-08-25T04:30:19;1.70;;;1.60;;
13708;SDS011;54933;51.908;7.730;2022-08-25T04:32:45;2.70;;;1.83;;
13708;SDS011;54933;51.908;7.730;2022-08-25T04:35:12;2.40;;;1.70;;
13708;SDS011;54933;51.908;7.730;2022-08-25T04:37:37;2.93;;;2.00;;
13708;SDS011;54933;51.908;7.730;2022-08-25T04:40:02;3.43;;;1.70;;
13708;SDS011;54933;51.908;7.730;2022-08-25T04:42:28;2.47;;;1.50;;
13708;SDS011;54933;51.908;7.730;2022-08-25T04:44:54;1.70;;;1.60;;
13708;SDS011;54933;51.908;7.730;2022-08-25T04:47:19;2.83;;;1.70;;
13708;SDS011;54933;51.908;7.730;2022-08-25T04:49:45;1.90;;;1.80;;
13708;SDS011;54933;51.908;7.730;2022-08-25T04:52:10;3.33;;;1.90;;
13708;SDS011;54933;51.908;7.730;2022-08-25T04:54:35;1.67;;;1.63;;
13708;SDS011;54933;51.908;7.730;2022-08-25T04:57:01;2.40;;;2.07;;
13708;SDS011;54933;51.908;7.730;2022-08-25T04:59:26;1.93;;;1.83;;
13708;SDS011;54933;51.908;7.730;2022-08-25T05:01:51;2.27;;;1.70;;
13708;SDS011;54933;51.908;7.730;2022-08-25T05:04:19;4.20;;;2.13;;
13708;SDS011;54933;51.908;7.730;2022-08-25T05:06:45;4.40;;;1.90;;
13708;SDS011;54933;51.908;7.730;2022-08-25T05:09:10;1.80;;;1.67;;
13708;SDS011;54933;51.908;7.730;2022-08-25T05:11:36;3.67;;;2.10;;
13708;SDS011;54933;51.908;7.730;2022-08-25T05:14:02;2.47;;;1.90;;
13708;SDS011;54933;51.908;7.730;2022-08-25T05:16:28;4.60;;;2.37;;
13708;SDS011;54933;51.908;7.730;2022-08-25T05:18:54;5.60;;;2.27;;
13708;SDS011;54933;51.908;7.730;2022-08-25T05:21:21;3.27;;;2.10;;
13708;SDS011;54933;51.908;7.730;2022-08-25T05:23:48;4.30;;;2.33;;
13708;SDS011;54933;51.908;7.730;2022-08-25T05:26:15;3.90;;;2.03;;
13708;SDS011;54933;51.908;7.730;2022-08-25T05:28:43;3.03;;;2.00;;
13708;SDS011;54933;51.908;7.730;2022-08-25T05:31:09;2.30;;;2.10;;
13708;SDS011;54933;51.908;7.730;2022-08-25T05:33:37;2.73;;;2.17;;
13708;SDS011;54933;51.908;7.730;2022-08-25T05:36:03;5.77;;;2.13;;
13708;SDS011;54933;51.908;7.730;2022-08-25T05:38:30;4.57;;;2.17;;
13708;SDS011;54933;51.908;7.730;2022-08-25T05:40:56;3.40;;;1.90;;
13708;SDS011;54933;51.908;7.730;2022-08-25T05:43:22;2.13;;;1.93;;
13708;SDS011;54933;51.908;7.730;2022-08-25T05:45:48;4.33;;;1.97;;
13708;SDS011;54933;51.908;7.730;2022-08-25T05:48:14;2.80;;;1.90;;
13708;SDS011;54933;51.908;7.730;2022-08-25T05:50:39;1.90;;;1.80;;
13708;SDS011;54933;51.908;7.730;2022-08-25T05:53:04;8.00;;;2.60;;
13708;SDS011;54933;51.908;7.730;2022-08-25T05:55:30;5.77;;;2.17;;
13708;SDS011;54933;51.908;7.730;2022-08-25T05:57:55;4.10;;;2.33;;
13708;SDS011;54933;51.908;7.730;2022-08-25T06:00:21;5.43;;;2.27;;
13708;SDS011;54933;51.908;7.730;2022-08-25T06:02:46;2.33;;;2.13;;
13708;SDS011;54933;51.908;7.730;2022-08-25T06:07:41;2.93;;;1.70;;
13708;SDS011;54933;51.908;7.730;2022-08-25T06:10:07;2.70;;;2.20;;
13708;SDS011;54933;51.908;7.730;2022-08-25T06:12:36;6.93;;;2.63;;
13708;SDS011;54933;51.908;7.730;2022-08-25T06:15:03;3.40;;;2.37;;
13708;SDS011;54933;51.908;7.730;2022-08-25T06:17:29;2.20;;;2.10;;
13708;SDS011;54933;51.908;7.730;2022-08-25T06:19:54;4.20;;;2.17;;
13708;SDS011;54933;51.908;7.730;2022-08-25T06:22:20;3.30;;;2.17;;
13708;SDS011;54933;51.908;7.730;2022-08-25T06:24:46;2.20;;;2.00;;
13708;SDS011;54933;51.908;7.730;2022-08-25T06:27:12;2.60;;;2.10;;
13708;SDS011;54933;51.908;7.730;2022-08-25T06:29:37;6.40;;;2.43;;
13708;SDS011;54933;51.908;7.730;2022-08-25T06:32:03;3.43;;;1.90;;
13708;SDS011;54933;51.908;7.730;2022-08-25T06:34:29;2.20;;;2.00;;
13708;SDS011;54933;51.908;7.730;2022-08-25T06:36:54;2.17;;;1.97;;
13708;SDS011;54933;51.908;7.730;2022-08-25T06:39:20;3.73;;;1.97;;
13708;SDS011;54933;51.908;7.730;2022-08-25T06:41:50;2.87;;;1.90;;
13708;SDS011;54933;51.908;7.730;2022-08-25T06:44:17;1.90;;;1.80;;
13708;SDS011;54933;51.908;7.730;2022-08-25T06:46:42;1.93;;;1.80;;
13708;SDS011;54933;51.908;7.730;2022-08-25T06:49:07;2.10;;;1.90;;
13708;SDS011;54933;51.908;7.730;2022-08-25T06:51:33;6.33;;;1.97;;
13708;SDS011;54933;51.908;7.730;2022-08-25T06:53:59;2.73;;;1.90;;
13708;SDS011;54933;51.908;7.730;2022-08-25T06:56:25;6.27;;;2.07;;
13708;SDS011;54933;51.908;7.730;2022-08-25T06:58:50;2.53;;;2.10;;
13708;SDS011;54933;51.908;7.730;2022-08-25T07:01:16;3.23;;;2.10;;
13708;SDS011;54933;51.908;7.730;2022-08-25T07:03:50;2.57;;;2.00;;
13708;SDS011;54933;51.908;7.730;2022-08-25T07:06:18;4.43;;;1.90;;
13708;SDS011;54933;51.908;7.730;2022-08-25T07:08:45;4.07;;;2.20;;
13708;SDS011;54933;51.908;7.730;2022-08-25T07:11:11;2.10;;;2.00;;
13708;SDS011;54933;51.908;7.730;2022-08-25T07:13:38;2.77;;;2.13;;
13708;SDS011;54933;51.908;7.730;2022-08-25T07:16:04;2.50;;;2.30;;
13708;SDS011;54933;51.908;7.730;2022-08-25T07:18:30;3.67;;;2.30;;
13708;SDS011;54933;51.908;7.730;2022-08-25T07:20:56;2.03;;;1.93;;
13708;SDS011;54933;51.908;7.730;2022-08-25T07:23:25;6.47;;;2.37;;
13708;SDS011;54933;51.908;7.730;2022-08-25T07:25:51;1.90;;;1.80;;
13708;SDS011;54933;51.908;7.730;2022-08-25T07:28:19;2.47;;;2.03;;
13708;SDS011;54933;51.908;7.730;2022-08-25T07:30:45;2.53;;;2.03;;
13708;SDS011;54933;51.908;7.730;2022-08-25T07:33:11;2.40;;;2.10;;
13708;SDS011;54933;51.908;7.730;2022-08-25T07:35:36;2.27;;;2.00;;
13708;SDS011;54933;51.908;7.730;2022-08-25T07:38:02;2.50;;;2.30;;
13708;SDS011;54933;51.908;7.730;2022-08-25T07:40:31;2.77;;;2.00;;
13708;SDS011;54933;51.908;7.730;2022-08-25T07:42:59;2.50;;;2.17;;
13708;SDS011;54933;51.908;7.730;2022-08-25T07:45:28;4.00;;;1.93;;
13708;SDS011;54933;51.908;7.730;2022-08-25T07:47:59;4.47;;;2.07;;
13708;SDS011;54933;51.908;7.730;2022-08-25T07:50:26;2.83;;;2.40;;
13708;SDS011;54933;51.908;7.730;2022-08-25T07:52:53;3.57;;;2.40;;
13708;SDS011;54933;51.908;7.730;2022-08-25T07:55:20;2.17;;;2.07;;
13708;SDS011;54933;51.908;7.730;2022-08-25T07:57:45;3.53;;;2.20;;
13708;SDS011;54933;51.908;7.730;2022-08-25T08:00:12;5.50;;;2.57;;
13708;SDS011;54933;51.908;7.730;2022-08-25T08:02:38;2.20;;;2.10;;
13708;SDS011;54933;51.908;7.730;2022-08-25T08:05:05;2.73;;;2.37;;
13708;SDS011;54933;51.908;7.730;2022-08-25T08:07:31;2.40;;;2.20;;
13708;SDS011;54933;51.908;7.730;2022-08-25T08:09:56;3.00;;;2.20;;
13708;SDS011;54933;51.908;7.730;2022-08-25T08:12:22;5.00;;;2.40;;
13708;SDS011;54933;51.908;7.730;2022-08-25T08:14:49;2.50;;;2.40;;
13708;SDS011;54933;51.908;7.730;2022-08-25T08:17:16;2.40;;;2.20;;
13708;SDS011;54933;51.908;7.730;2022-08-25T08:19:41;2.97;;;2.10;;
13708;SDS011;54933;51.908;7.730;2022-08-25T08:22:07;2.47;;;2.10;;
13708;SDS011;54933;51.908;7.730;2022-08-25T08:24:35;4.50;;;2.70;;
13708;SDS011;54933;51.908;7.730;2022-08-25T08:27:03;2.50;;;2.30;;
13708;SDS011;54933;51.908;7.730;2022-08-25T08:29:30;3.67;;;2.20;;
13708;SDS011;54933;51.908;7.730;2022-08-25T08:31:55;2.50;;;2.30;;
13708;SDS011;54933;51.908;7.730;2022-08-25T08:34:20;3.17;;;2.60;;
13708;SDS011;54933;51.908;7.730;2022-08-25T08:36:47;4.03;;;2.30;;
13708;SDS011;54933;51.908;7.730;2022-08-25T08:39:13;4.30;;;2.90;;
13708;SDS011;54933;51.908;7.730;2022-08-25T08:44:53;4.70;;;2.37;;
13708;SDS011;54933;51.908;7.730;2022-08-25T08:47:28;2.53;;;2.33;;
13708;SDS011;54933;51.908;7.730;2022-08-25T08:52:42;4.23;;;2.70;;
13708;SDS011;54933;51.908;7.730;2022-08-25T08:55:57;2.73;;;2.33;;
13708;SDS011;54933;51.908;7.730;2022-08-25T09:01:16;3.13;;;2.70;;
13708;SDS011;54933;51.908;7.730;2022-08-25T09:03:50;3.37;;;2.30;;
13708;SDS011;54933;51.908;7.730;2022-08-25T09:06:23;3.37;;;3.07;;
13708;SDS011;54933;51.908;7.730;2022-08-25T09:09:02;2.77;;;2.53;;
13708;SDS011;54933;51.908;7.730;2022-08-25T09:11:43;3.23;;;2.93;;
13708;SDS011;54933;51.908;7.730;2022-08-25T09:23:02;4.23;;;2.50;;
13708;SDS011;54933;51.908;7.730;2022-08-25T09:25:59;3.80;;;2.77;;
13708;SDS011;54933;51.908;7.730;2022-08-25T09:31:23;4.10;;;2.37;;
13708;SDS011;54933;51.908;7.730;2022-08-25T09:33:52;7.47;;;2.70;;
13708;SDS011;54933;51.908;7.730;2022-08-25T09:36:20;4.87;;;2.90;;
13708;SDS011;54933;51.908;7.730;2022-08-25T09:38:46;4.77;;;3.00;;
13708;SDS011;54933;51.908;7.730;2022-08-25T09:41:11;3.30;;;2.87;;
13708;SDS011;54933;51.908;7.730;2022-08-25T09:43:41;5.37;;;3.00;;
13708;SDS011;54933;51.908;7.730;2022-08-25T09:46:10;4.73;;;2.80;;
13708;SDS011;54933;51.908;7.730;2022-08-25T09:48:45;4.23;;;2.40;;
13708;SDS011;54933;51.908;7.730;2022-08-25T09:53:55;2.47;;;2.27;;
13708;SDS011;54933;51.908;7.730;2022-08-25T09:56:49;2.70;;;2.47;;
13708;SDS011;54933;51.908;7.730;2022-08-25T09:59:21;2.80;;;2.53;;
13708;SDS011;54933;51.908;7.730;2022-08-25T10:01:49;3.50;;;3.00;;
13708;SDS011;54933;51.908;7.730;2022-08-25T10:04:25;3.40;;;2.83;;
13708;SDS011;54933;51.908;7.730;2022-08-25T10:06:52;4.73;;;2.77;;
13708;SDS011;54933;51.908;7.730;2022-08-25T10:09:26;11.17;;;2.90;;
13708;SDS011;54933;51.908;7.730;2022-08-25T10:11:55;3.07;;;2.77;;
13708;SDS011;54933;51.908;7.730;2022-08-25T10:17:10;6.00;;;2.33;;
13708;SDS011;54933;51.908;7.730;2022-08-25T10:22:33;3.00;;;2.63;;
13708;SDS011;54933;51.908;7.730;2022-08-25T10:24:59;2.60;;;2.40;;
13708;SDS011;54933;51.908;7.730;2022-08-25T10:28:09;5.13;;;2.90;;
13708;SDS011;54933;51.908;7.730;2022-08-25T10:30:25;3.80;;;3.00;;
13708;SDS011;54933;51.908;7.730;2022-08-25T10:38:35;4.03;;;3.03;;
13708;SDS011;54933;51.908;7.730;2022-08-25T10:43:41;3.00;;;2.73;;
13708;SDS011;54933;51.908;7.730;2022-08-25T10:48:58;4.40;;;2.80;;
13708;SDS011;54933;51.908;7.730;2022-08-25T10:51:31;3.50;;;3.13;;
13708;SDS011;54933;51.908;7.730;2022-08-25T10:57:03;7.37;;;2.53;;
13708;SDS011;54933;51.908;7.730;2022-08-25T11:13:32;10.07;;;3.27;;
13708;SDS011;54933;51.908;7.730;2022-08-25T11:19:24;3.37;;;2.87;;
13708;SDS011;54933;51.908;7.730;2022-08-25T11:22:00;3.23;;;2.90;;
13708;SDS011;54933;51.908;7.730;2022-08-25T11:24:43;4.57;;;3.30;;
13708;SDS011;54933;51.908;7.730;2022-08-25T11:27:20;3.70;;;2.83;;
13708;SDS011;54933;51.908;7.730;2022-08-25T11:32:52;2.57;;;2.40;;
13708;SDS011;54933;51.908;7.730;2022-08-25T11:35:37;3.40;;;3.10;;
13708;SDS011;54933;51.908;7.730;2022-08-25T11:38:17;3.67;;;3.20;;
13708;SDS011;54933;51.908;7.730;2022-08-25T11:44:22;3.67;;;3.30;;
13708;SDS011;54933;51.908;7.730;2022-08-25T11:49:43;2.97;;;2.67;;
13708;SDS011;54933;51.908;7.730;2022-08-25T11:55:16;4.40;;;2.83;;
13708;SDS011;54933;51.908;7.730;2022-08-25T11:57:42;3.97;;;3.00;;
13708;SDS011;54933;51.908;7.730;2022-08-25T12:02:53;3.97;;;2.90;;
13708;SDS011;54933;51.908;7.730;2022-08-25T12:10:16;3.53;;;3.20;;
13708;SDS011;54933;51.908;7.730;2022-08-25T12:15:26;3.30;;;3.00;;
13708;SDS011;54933;51.908;7.730;2022-08-25T12:18:08;3.43;;;2.80;;
13708;SDS011;54933;51.908;7.730;2022-08-25T12:23:37;3.50;;;3.20;;
13708;SDS011;54933;51.908;7.730;2022-08-25T12:34:25;3.67;;;3.17;;
13708;SDS011;54933;51.908;7.730;2022-08-25T12:37:30;3.10;;;2.80;;
13708;SDS011;54933;51.908;7.730;2022-08-25T12:39:56;3.10;;;2.90;;
13708;SDS011;54933;51.908;7.730;2022-08-25T12:42:36;3.60;;;3.30;;
13708;SDS011;54933;51.908;7.730;2022-08-25T12:47:44;4.23;;;2.80;;
13708;SDS011;54933;51.908;7.730;2022-08-25T12:53:15;4.10;;;3.17;;
13708;SDS011;54933;51.908;7.730;2022-08-25T12:55:49;4.87;;;3.07;;
13708;SDS011;54933;51.908;7.730;2022-08-25T12:58:21;5.60;;;3.20;;
13708;SDS011;54933;51.908;7.730;2022-08-25T13:03:59;3.57;;;3.27;;
13708;SDS011;54933;51.908;7.730;2022-08-25T13:14:52;4.70;;;3.20;;
13708;SDS011;54933;51.908;7.730;2022-08-25T13:17:24;5.40;;;3.23;;
13708;SDS011;54933;51.908;7.730;2022-08-25T13:20:18;3.67;;;3.30;;
13708;SDS011;54933;51.908;7.730;2022-08-25T13:22:50;3.70;;;3.20;;
13708;SDS011;54933;51.908;7.730;2022-08-25T13:25:18;4.03;;;3.20;;
13708;SDS011;54933;51.908;7.730;2022-08-25T13:27:52;3.00;;;2.80;;
13708;SDS011;54933;51.908;7.730;2022-08-25T13:30:28;6.27;;;3.20;;
13708;SDS011;54933;51.908;7.730;2022-08-25T13:33:17;4.20;;;3.80;;
13708;SDS011;54933;51.908;7.730;2022-08-25T13:35:48;3.63;;;3.30;;
13708;SDS011;54933;51.908;7.730;2022-08-25T13:38:35;3.47;;;3.20;;
13708;SDS011;54933;51.908;7.730;2022-08-25T13:41:03;3.87;;;3.40;;
13708;SDS011;54933;51.908;7.730;2022-08-25T13:43:30;3.47;;;3.13;;
13708;SDS011;54933;51.908;7.730;2022-08-25T13:45:55;5.13;;;3.07;;
13708;SDS011;54933;51.908;7.730;2022-08-25T13:48:35;5.30;;;3.53;;
13708;SDS011;54933;51.908;7.730;2022-08-25T13:53:46;3.50;;;3.20;;
13708;SDS011;54933;51.908;7.730;2022-08-25T13:56:13;3.77;;;3.23;;
13708;SDS011;54933;51.908;7.730;2022-08-25T13:58:48;11.93;;;3.60;;
13708;SDS011;54933;51.908;7.730;2022-08-25T14:01:18;3.60;;;3.30;;
13708;SDS011;54933;51.908;7.730;2022-08-25T14:03:49;4.73;;;4.03;;
13708;SDS011;54933;51.908;7.730;2022-08-25T14:06:22;3.57;;;3.20;;
13708;SDS011;54933;51.908;7.730;2022-08-25T14:11:28;8.83;;;3.67;;
13708;SDS011;54933;51.908;7.730;2022-08-25T14:14:06;4.00;;;3.40;;
13708;SDS011;54933;51.908;7.730;2022-08-25T14:16:38;4.20;;;3.80;;
13708;SDS011;54933;51.908;7.730;2022-08-25T14:19:13;5.37;;;3.53;;
13708;SDS011;54933;51.908;7.730;2022-08-25T14:21:41;3.90;;;3.60;;
13708;SDS011;54933;51.908;7.730;2022-08-25T14:24:07;6.43;;;3.47;;
13708;SDS011;54933;51.908;7.730;2022-08-25T14:26:32;4.70;;;3.70;;
13708;SDS011;54933;51.908;7.730;2022-08-25T14:28:58;4.83;;;3.70;;
13708;SDS011;54933;51.908;7.730;2022-08-25T14:31:30;5.10;;;3.90;;
13708;SDS011;54933;51.908;7.730;2022-08-25T14:34:03;7.00;;;3.97;;
13708;SDS011;54933;51.908;7.730;2022-08-25T14:36:33;7.53;;;3.80;;
13708;SDS011;54933;51.908;7.730;2022-08-25T14:39:00;5.10;;;3.23;;
13708;SDS011;54933;51.908;7.730;2022-08-25T14:41:30;3.90;;;3.50;;
13708;SDS011;54933;51.908;7.730;2022-08-25T14:43:58;5.40;;;3.60;;
13708;SDS011;54933;51.908;7.730;2022-08-25T14:46:26;4.23;;;3.83;;
13708;SDS011;54933;51.908;7.730;2022-08-25T14:48:54;9.00;;;4.03;;
13708;SDS011;54933;51.908;7.730;2022-08-25T14:51:23;3.83;;;3.43;;
13708;SDS011;54933;51.908;7.730;2022-08-25T14:53:54;4.03;;;3.47;;
13708;SDS011;54933;51.908;7.730;2022-08-25T14:56:22;6.07;;;4.00;;
13708;SDS011;54933;51.908;7.730;2022-08-25T14:58:47;4.40;;;4.00;;
13708;SDS011;54933;51.908;7.730;2022-08-25T15:01:13;4.70;;;3.43;;
13708;SDS011;54933;51.908;7.730;2022-08-25T15:03:44;4.73;;;3.70;;
13708;SDS011;54933;51.908;7.730;2022-08-25T15:06:12;3.70;;;3.40;;
13708;SDS011;54933;51.908;7.730;2022-08-25T15:08:40;4.43;;;3.97;;
13708;SDS011;54933;51.908;7.730;2022-08-25T15:11:24;6.33;;;4.00;;
13708;SDS011;54933;51.908;7.730;2022-08-25T15:13:50;6.30;;;3.70;;
13708;SDS011;54933;51.908;7.730;2022-08-25T15:16:32;4.57;;;4.17;;
13708;SDS011;54933;51.908;7.730;2022-08-25T15:19:01;3.57;;;3.27;;
13708;SDS011;54933;51.908;7.730;2022-08-25T15:21:29;6.47;;;4.10;;
13708;SDS011;54933;51.908;7.730;2022-08-25T15:23:55;4.50;;;3.73;;
13708;SDS011;54933;51.908;7.730;2022-08-25T15:26:20;5.10;;;3.50;;
13708;SDS011;54933;51.908;7.730;2022-08-25T15:28:48;3.60;;;3.30;;
13708;SDS011;54933;51.908;7.730;2022-08-25T15:31:15;4.73;;;3.77;;
13708;SDS011;54933;51.908;7.730;2022-08-25T15:33:41;5.23;;;3.43;;
13708;SDS011;54933;51.908;7.730;2022-08-25T15:36:08;4.07;;;3.67;;
13708;SDS011;54933;51.908;7.730;2022-08-25T15:38:35;4.40;;;3.67;;
13708;SDS011;54933;51.908;7.730;2022-08-25T15:41:01;4.83;;;3.67;;
13708;SDS011;54933;51.908;7.730;2022-08-25T15:43:26;5.40;;;4.07;;
13708;SDS011;54933;51.908;7.730;2022-08-25T15:45:52;5.03;;;3.77;;
13708;SDS011;54933;51.908;7.730;2022-08-25T15:48:17;6.30;;;3.70;;
13708;SDS011;54933;51.908;7.730;2022-08-25T15:50:42;4.50;;;4.10;;
13708;SDS011;54933;51.908;7.730;2022-08-25T15:53:07;6.50;;;3.43;;
13708;SDS011;54933;51.908;7.730;2022-08-25T15:55:35;6.97;;;3.90;;
13708;SDS011;54933;51.908;7.730;2022-08-25T15:58:02;7.47;;;4.13;;
13708;SDS011;54933;51.908;7.730;2022-08-25T16:00:28;14.00;;;3.57;;
13708;SDS011;54933;51.908;7.730;2022-08-25T16:02:53;4.53;;;3.33;;
13708;SDS011;54933;51.908;7.730;2022-08-25T16:05:18;5.47;;;4.40;;
13708;SDS011;54933;51.908;7.730;2022-08-25T16:07:43;4.30;;;3.33;;
13708;SDS011;54933;51.908;7.730;2022-08-25T16:10:12;4.33;;;3.80;;
13708;SDS011;54933;51.908;7.730;2022-08-25T16:12:39;4.90;;;3.90;;
13708;SDS011;54933;51.908;7.730;2022-08-25T16:15:05;4.70;;;3.43;;
13708;SDS011;54933;51.908;7.730;2022-08-25T16:17:31;11.90;;;3.80;;
13708;SDS011;54933;51.908;7.730;2022-08-25T16:19:56;4.93;;;4.43;;
13708;SDS011;54933;51.908;7.730;2022-08-25T16:22:22;7.73;;;3.83;;
13708;SDS011;54933;51.908;7.730;2022-08-25T16:24:47;4.70;;;3.73;;
13708;SDS011;54933;51.908;7.730;2022-08-25T16:27:13;4.40;;;3.63;;
13708;SDS011;54933;51.908;7.730;2022-08-25T16:29:40;3.90;;;3.60;;
13708;SDS011;54933;51.908;7.730;2022-08-25T16:32:06;4.07;;;3.67;;
13708;SDS011;54933;51.908;7.730;2022-08-25T16:34:33;4.00;;;3.70;;
13708;SDS011;54933;51.908;7.730;2022-08-25T16:36:59;4.20;;;3.77;;
13708;SDS011;54933;51.908;7.730;2022-08-25T16:39:24;5.70;;;3.80;;
13708;SDS011;54933;51.908;7.730;2022-08-25T16:41:50;4.80;;;3.77;;
13708;SDS011;54933;51.908;7.730;2022-08-25T16:44:17;4.07;;;3.53;;
13708;SDS011;54933;51.908;7.730;2022-08-25T16:46:43;7.53;;;3.50;;
13708;SDS011;54933;51.908;7.730;2022-08-25T16:49:09;5.43;;;3.80;;
13708;SDS011;54933;51.908;7.730;2022-08-25T16:51:36;4.23;;;3.83;;
13708;SDS011;54933;51.908;7.730;2022-08-25T16:54:03;3.90;;;3.50;;